Terminal Aerodrome Forecast
Issued by NWS

Home | Current Version | Previous Version | Text Only | Print | Product List | Glossary On
Versions: 1 2 3 4 5 6 7 8 9 10 11 12 13 14 15 16 17 18 19 20 21
000
FTUS43 KILX 270525
TAFCMI
TAF
KCMI 270525Z 2706/2806 17009KT P6SM BKN250
     FM270900 18009KT P6SM -TSRA SCT025CB BKN045
      TEMPO 2709/2712 3SM TSRA BR BKN025CB
     FM271200 18011KT P6SM VCSH BKN045
     FM271600 17015G22KT P6SM OVC090
     FM272100 18016G24KT P6SM VCTS SCT030CB BKN060
     FM280100 16010KT P6SM VCTS SCT025CB BKN050=

USA.gov is the U.S. government's official web portal to all federal, state and local government web resources and services.